createdAt,value
2022-11-16T00:01:58.352Z,7.87
2022-11-16T00:04:27.965Z,7.50
2022-11-16T00:06:56.458Z,8.57
2022-11-16T00:09:27.075Z,7.93
2022-11-16T00:11:57.801Z,8.67
2022-11-16T00:14:28.225Z,8.10
2022-11-16T00:16:56.789Z,10.03
2022-11-16T00:19:27.196Z,7.70
2022-11-16T00:21:55.963Z,8.47
2022-11-16T00:24:24.988Z,7.43
2022-11-16T00:26:56.590Z,8.50
2022-11-16T00:29:26.387Z,8.33
2022-11-16T00:31:54.907Z,8.13
2022-11-16T00:34:23.738Z,7.53
2022-11-16T00:36:53.494Z,7.97
2022-11-16T00:39:21.784Z,7.77
2022-11-16T00:41:50.460Z,8.73
2022-11-16T00:44:19.086Z,8.27
2022-11-16T00:46:47.504Z,8.53
2022-11-16T00:49:16.144Z,8.37
2022-11-16T00:51:44.350Z,7.80
2022-11-16T00:54:13.787Z,10.93
2022-11-16T00:56:42.133Z,11.53
2022-11-16T00:59:10.550Z,8.30
2022-11-16T01:01:38.764Z,8.13
2022-11-16T01:04:07.092Z,8.03
2022-11-16T01:06:35.477Z,8.30
2022-11-16T01:09:03.894Z,6.80
2022-11-16T01:11:50.979Z,7.43
2022-11-16T01:14:19.268Z,7.57
2022-11-16T01:16:50.774Z,7.90
2022-11-16T01:19:19.130Z,8.27
2022-11-16T01:21:47.489Z,8.40
2022-11-16T01:24:15.810Z,7.87
2022-11-16T01:26:45.259Z,8.00
2022-11-16T01:29:13.685Z,7.60
2022-11-16T01:31:41.980Z,10.40
2022-11-16T01:34:10.188Z,8.43
2022-11-16T01:36:38.254Z,7.60
2022-11-16T01:39:06.908Z,8.57
2022-11-16T01:41:35.313Z,8.43
2022-11-16T01:44:06.782Z,8.43
2022-11-16T01:46:35.243Z,7.83
2022-11-16T01:49:07.694Z,9.67
2022-11-16T01:51:36.466Z,7.73
2022-11-16T01:54:08.370Z,8.40
2022-11-16T01:56:38.600Z,8.33
2022-11-16T01:59:08.449Z,8.33
2022-11-16T02:01:36.553Z,8.07
2022-11-16T02:04:04.691Z,8.27
2022-11-16T02:06:40.737Z,8.77
2022-11-16T02:09:41.041Z,8.00
2022-11-16T02:12:22.952Z,7.90
2022-11-16T02:15:06.983Z,8.17
2022-11-16T02:17:43.547Z,8.20
2022-11-16T02:20:42.313Z,8.80
2022-11-16T02:23:42.246Z,7.63
2022-11-16T02:26:24.305Z,7.77
2022-11-16T02:29:07.712Z,7.97
2022-11-16T02:31:40.745Z,8.73
2022-11-16T02:34:12.419Z,8.03
2022-11-16T02:36:42.840Z,9.30
2022-11-16T02:39:15.789Z,8.53
2022-11-16T02:41:46.623Z,8.17
2022-11-16T02:44:20.232Z,8.17
2022-11-16T02:46:53.588Z,8.47
2022-11-16T02:49:22.010Z,8.93
2022-11-16T02:51:51.836Z,8.20
2022-11-16T02:54:21.784Z,8.30
2022-11-16T02:56:56.516Z,8.77
2022-11-16T02:59:30.501Z,8.63
2022-11-16T03:02:03.885Z,9.20
2022-11-16T03:04:37.748Z,7.90
2022-11-16T03:07:08.684Z,8.27
2022-11-16T03:09:38.956Z,10.23
2022-11-16T03:12:11.635Z,8.50
2022-11-16T03:14:45.284Z,8.30
2022-11-16T03:17:18.916Z,7.60
2022-11-16T03:19:52.712Z,8.93
2022-11-16T03:22:25.734Z,9.27
2022-11-16T03:24:54.289Z,10.47
2022-11-16T03:27:27.908Z,9.30
2022-11-16T03:30:05.671Z,8.20
2022-11-16T03:32:42.088Z,8.10
2022-11-16T03:35:16.448Z,8.47
2022-11-16T03:37:46.704Z,7.73
2022-11-16T03:40:16.888Z,8.33
2022-11-16T03:42:46.184Z,9.43
2022-11-16T03:45:15.766Z,9.10
2022-11-16T03:47:44.147Z,8.27
2022-11-16T03:50:12.431Z,8.73
2022-11-16T03:52:41.377Z,8.30
2022-11-16T03:55:10.146Z,8.60
2022-11-16T03:57:38.617Z,9.03
2022-11-16T04:00:08.296Z,8.67
2022-11-16T04:02:37.899Z,9.13
2022-11-16T04:05:23.819Z,8.37
2022-11-16T04:08:09.924Z,9.13
2022-11-16T04:10:56.178Z,8.57
2022-11-16T04:13:47.299Z,9.27
2022-11-16T04:16:33.118Z,13.20
2022-11-16T04:19:20.577Z,9.33
2022-11-16T04:22:09.087Z,8.57
2022-11-16T04:24:39.576Z,8.37
2022-11-16T04:27:29.927Z,9.20
2022-11-16T04:29:59.659Z,8.57
2022-11-16T04:32:46.031Z,8.57
2022-11-16T04:35:32.813Z,8.20
2022-11-16T04:38:01.290Z,9.30
2022-11-16T04:40:30.179Z,9.27
2022-11-16T04:42:59.712Z,7.83
2022-11-16T04:45:46.563Z,8.70
2022-11-16T04:48:15.823Z,8.30
2022-11-16T04:50:45.817Z,8.47
2022-11-16T04:53:14.412Z,8.30
2022-11-16T04:55:42.780Z,9.23
2022-11-16T04:58:11.121Z,9.00
2022-11-16T05:00:39.492Z,8.77
2022-11-16T05:03:08.023Z,8.00
2022-11-16T05:05:36.348Z,8.87
2022-11-16T05:08:06.096Z,7.87
2022-11-16T05:10:34.414Z,8.33
2022-11-16T05:13:02.820Z,7.87
2022-11-16T05:15:31.115Z,8.50
2022-11-16T05:17:59.490Z,8.70
2022-11-16T05:20:45.206Z,8.60
2022-11-16T05:23:28.524Z,8.10
2022-11-16T05:25:56.830Z,7.87
2022-11-16T05:28:25.191Z,7.70
2022-11-16T05:30:53.481Z,8.93
2022-11-16T05:33:21.561Z,7.93
2022-11-16T05:35:51.497Z,10.00
2022-11-16T05:38:21.381Z,8.40
2022-11-16T05:40:49.732Z,8.53
2022-11-16T05:43:18.104Z,8.17
2022-11-16T05:45:46.217Z,9.27
2022-11-16T05:48:14.512Z,7.97
2022-11-16T05:50:43.381Z,7.97
2022-11-16T05:53:11.832Z,9.67
2022-11-16T05:55:41.220Z,8.17
2022-11-16T05:58:09.569Z,8.17
2022-11-16T06:00:37.924Z,7.77
2022-11-16T06:03:06.361Z,7.37
2022-11-16T06:05:40.270Z,10.70
2022-11-16T06:08:09.091Z,7.70
2022-11-16T06:10:37.945Z,7.70
2022-11-16T06:13:07.351Z,7.23
2022-11-16T06:15:39.283Z,7.37
2022-11-16T06:18:08.137Z,7.20
2022-11-16T06:20:36.500Z,7.40
2022-11-16T06:23:04.896Z,6.87
2022-11-16T06:25:33.285Z,7.73
2022-11-16T06:28:06.606Z,7.30
2022-11-16T06:30:38.163Z,6.90
2022-11-16T06:33:06.676Z,7.47
2022-11-16T06:35:34.910Z,7.50
2022-11-16T06:38:03.421Z,7.33
2022-11-16T06:40:32.704Z,7.77
2022-11-16T06:43:01.114Z,8.27
2022-11-16T06:45:29.531Z,7.63
2022-11-16T06:47:59.564Z,8.67
2022-11-16T06:50:27.996Z,8.17
2022-11-16T06:52:56.458Z,9.43
2022-11-16T06:55:24.802Z,8.57
2022-11-16T06:57:53.128Z,7.43
2022-11-16T07:00:21.407Z,7.37
2022-11-16T07:02:49.885Z,7.33
2022-11-16T07:05:19.396Z,7.77
2022-11-16T07:07:48.043Z,8.07
2022-11-16T07:10:16.489Z,7.93
2022-11-16T07:12:44.817Z,7.53
2022-11-16T07:15:13.219Z,6.90
2022-11-16T07:17:42.446Z,7.90
2022-11-16T07:20:12.071Z,6.80
2022-11-16T07:22:41.957Z,6.20
2022-11-16T07:25:10.900Z,7.63
2022-11-16T07:27:39.337Z,8.07
2022-11-16T07:30:08.611Z,7.93
2022-11-16T07:32:39.923Z,7.27
2022-11-16T07:35:08.806Z,7.73
2022-11-16T07:37:37.146Z,7.73
2022-11-16T07:40:07.875Z,7.33
2022-11-16T07:42:36.380Z,7.17
2022-11-16T07:45:04.557Z,7.63
2022-11-16T07:47:37.363Z,7.63
2022-11-16T07:50:06.305Z,7.47
2022-11-16T07:52:34.665Z,9.77
2022-11-16T07:55:02.965Z,8.77
2022-11-16T07:57:32.453Z,7.93
2022-11-16T08:00:00.829Z,7.30
2022-11-16T08:02:28.932Z,7.47
2022-11-16T08:04:57.356Z,8.17
2022-11-16T08:07:25.570Z,9.03
2022-11-16T08:09:53.764Z,8.33
2022-11-16T08:12:22.215Z,8.10
2022-11-16T08:14:51.853Z,7.57
2022-11-16T08:17:20.169Z,8.07
2022-11-16T08:19:48.545Z,7.40
2022-11-16T08:22:16.854Z,7.00
2022-11-16T08:24:45.404Z,6.47
2022-11-16T08:27:15.378Z,7.63
2022-11-16T08:29:43.760Z,7.20
2022-11-16T08:32:13.136Z,7.57
2022-11-16T08:34:41.524Z,8.10
2022-11-16T08:37:09.819Z,7.53
2022-11-16T08:39:37.865Z,7.57
2022-11-16T08:42:06.193Z,8.10
2022-11-16T08:44:34.587Z,8.97
2022-11-16T08:47:02.957Z,8.30
2022-11-16T08:49:32.289Z,8.20
2022-11-16T08:52:00.324Z,8.40
2022-11-16T08:54:29.957Z,8.40
2022-11-16T08:56:57.996Z,9.00
2022-11-16T08:59:26.334Z,8.67
2022-11-16T09:01:54.703Z,7.67
2022-11-16T09:04:24.459Z,6.87
2022-11-16T09:06:54.960Z,8.00
2022-11-16T09:09:23.340Z,7.40
2022-11-16T09:11:53.584Z,8.10
2022-11-16T09:14:21.967Z,9.43
2022-11-16T09:16:50.356Z,7.70
2022-11-16T09:19:18.968Z,6.90
2022-11-16T09:21:47.290Z,7.63
2022-11-16T09:24:16.783Z,7.50
2022-11-16T09:26:45.086Z,6.80
2022-11-16T09:29:14.613Z,6.60
2022-11-16T09:31:43.131Z,8.83
2022-11-16T09:34:11.529Z,7.93
2022-11-16T09:36:39.844Z,8.53
2022-11-16T09:39:30.155Z,7.47
2022-11-16T09:42:05.778Z,6.73
2022-11-16T09:45:00.729Z,7.27
2022-11-16T09:47:41.121Z,6.67
2022-11-16T09:50:25.652Z,5.83
2022-11-16T09:52:56.560Z,9.07
2022-11-16T09:55:32.057Z,8.53
2022-11-16T09:58:04.803Z,6.57
2022-11-16T10:00:33.312Z,5.57
2022-11-16T10:03:06.501Z,5.40
2022-11-16T10:05:39.948Z,6.50
2022-11-16T10:08:15.530Z,6.33
2022-11-16T10:10:52.747Z,6.47
2022-11-16T10:13:37.190Z,6.70
2022-11-16T10:16:11.694Z,7.00
2022-11-16T10:18:47.762Z,7.13
2022-11-16T10:21:34.866Z,6.67
2022-11-16T10:24:33.453Z,6.70
2022-11-16T10:27:34.530Z,6.57
2022-11-16T10:30:10.898Z,6.67
2022-11-16T10:32:42.086Z,6.50
2022-11-16T10:35:17.999Z,7.17
2022-11-16T10:37:49.327Z,6.87
2022-11-16T10:40:23.410Z,6.63
2022-11-16T10:43:00.450Z,6.30
2022-11-16T10:45:46.414Z,7.87
2022-11-16T10:48:27.899Z,6.53
2022-11-16T10:50:56.282Z,6.43
2022-11-16T10:53:29.026Z,5.97
2022-11-16T10:56:12.427Z,5.80
2022-11-16T10:58:52.358Z,5.90
2022-11-16T11:01:34.527Z,5.70
2022-11-16T11:04:20.136Z,6.07
2022-11-16T11:06:51.360Z,4.87
2022-11-16T11:09:27.250Z,4.67
2022-11-16T11:12:31.737Z,5.60
2022-11-16T11:15:05.779Z,8.17
2022-11-16T11:17:36.880Z,4.90
2022-11-16T11:20:08.206Z,4.93
2022-11-16T11:22:43.958Z,4.77
2022-11-16T11:25:21.670Z,13.03
2022-11-16T11:27:50.104Z,4.60
2022-11-16T11:30:21.063Z,5.03
2022-11-16T11:32:52.920Z,6.10
2022-11-16T11:35:25.284Z,5.07
2022-11-16T11:37:56.188Z,4.83
2022-11-16T11:40:26.232Z,5.90
2022-11-16T11:42:59.651Z,6.27
2022-11-16T11:45:39.557Z,5.30
2022-11-16T11:48:25.545Z,6.80
2022-11-16T11:50:56.196Z,4.87
2022-11-16T11:53:48.032Z,4.90
2022-11-16T11:56:16.582Z,4.30
2022-11-16T11:58:45.055Z,4.30
2022-11-16T12:01:57.247Z,4.30
2022-11-16T12:04:57.881Z,4.60
2022-11-16T12:07:48.889Z,4.40
2022-11-16T12:10:24.230Z,4.80
2022-11-16T12:13:04.637Z,4.07
2022-11-16T12:15:57.997Z,4.43
2022-11-16T12:18:46.820Z,4.10
2022-11-16T12:21:23.370Z,3.83
2022-11-16T12:24:07.269Z,3.93
2022-11-16T12:26:47.778Z,3.67
2022-11-16T12:29:26.820Z,4.40
2022-11-16T12:32:18.544Z,4.37
2022-11-16T12:35:00.788Z,6.20
2022-11-16T12:37:36.540Z,4.37
2022-11-16T12:40:24.258Z,4.27
2022-11-16T12:42:59.036Z,5.47
2022-11-16T12:45:41.850Z,4.60
2022-11-16T12:48:40.205Z,6.20
2022-11-16T12:51:14.014Z,5.27
2022-11-16T12:54:07.970Z,5.23
2022-11-16T12:56:48.936Z,4.53
2022-11-16T12:59:34.007Z,4.80
2022-11-16T13:02:11.869Z,6.03
2022-11-16T13:04:43.435Z,6.45
2022-11-16T13:07:14.690Z,7.07
2022-11-16T13:09:47.007Z,8.60
2022-11-16T13:12:19.291Z,5.75
2022-11-16T13:14:49.580Z,5.75
2022-11-16T13:17:21.366Z,5.63
2022-11-16T13:19:59.223Z,5.45
2022-11-16T13:22:29.382Z,5.57
2022-11-16T13:25:05.785Z,5.80
2022-11-16T13:27:39.691Z,4.93
2022-11-16T13:30:16.945Z,4.93
2022-11-16T13:33:02.843Z,5.80
2022-11-16T13:35:31.241Z,4.87
2022-11-16T13:37:59.637Z,4.90
2022-11-16T13:40:31.140Z,4.67
2022-11-16T13:43:04.894Z,5.03
2022-11-16T13:45:35.969Z,5.03
2022-11-16T13:48:15.462Z,5.93
2022-11-16T13:50:49.075Z,7.28
2022-11-16T13:54:37.740Z,4.93
2022-11-16T13:56:16.888Z,9.52
2022-11-16T13:58:48.050Z,5.40
2022-11-16T14:01:17.528Z,5.45
2022-11-16T14:03:46.694Z,4.82
2022-11-16T14:06:51.252Z,4.63
2022-11-16T14:09:48.022Z,5.25
2022-11-16T14:12:53.862Z,5.38
2022-11-16T14:15:23.714Z,4.37
2022-11-16T14:18:04.685Z,5.07
2022-11-16T14:20:52.728Z,4.93
2022-11-16T14:23:36.041Z,4.70
2022-11-16T14:26:14.141Z,4.90
2022-11-16T14:28:55.107Z,4.85
2022-11-16T14:31:26.495Z,6.43
2022-11-16T14:33:57.091Z,5.07
2022-11-16T14:36:41.143Z,4.83
2022-11-16T14:39:31.400Z,4.40
2022-11-16T14:42:02.734Z,4.83
2022-11-16T14:44:36.356Z,3.93
2022-11-16T14:47:05.036Z,4.17
2022-11-16T14:49:36.959Z,3.63
2022-11-16T14:52:08.348Z,5.07
2022-11-16T14:54:40.746Z,4.07
2022-11-16T14:57:14.750Z,6.90
2022-11-16T14:59:44.160Z,3.73
2022-11-16T15:02:20.097Z,4.13
2022-11-16T15:04:49.145Z,4.90
2022-11-16T15:07:18.714Z,4.70
2022-11-16T15:09:50.061Z,5.00
2022-11-16T15:12:37.919Z,3.73
2022-11-16T15:15:12.479Z,4.23
2022-11-16T15:17:42.295Z,5.37
2022-11-16T15:20:19.613Z,4.43
2022-11-16T15:22:49.685Z,4.57
2022-11-16T15:25:28.564Z,6.07
2022-11-16T15:27:59.134Z,3.97
2022-11-16T15:30:31.030Z,4.30
2022-11-16T15:32:59.505Z,4.20
2022-11-16T15:35:31.640Z,3.60
2022-11-16T15:38:05.164Z,3.57
2022-11-16T15:40:34.472Z,4.00
2022-11-16T15:43:05.563Z,4.03
2022-11-16T15:45:36.062Z,4.93
2022-11-16T15:48:05.210Z,4.80
2022-11-16T15:50:33.420Z,3.97
2022-11-16T15:53:01.874Z,4.03
2022-11-16T15:55:34.238Z,4.50
2022-11-16T15:58:14.855Z,3.87
2022-11-16T16:00:48.876Z,3.97
2022-11-16T16:03:23.877Z,3.77
2022-11-16T16:05:52.914Z,4.07
2022-11-16T16:08:29.908Z,4.33
2022-11-16T16:11:03.146Z,5.10
2022-11-16T16:13:34.156Z,8.00
2022-11-16T16:16:27.989Z,4.47
2022-11-16T16:19:00.189Z,4.73
2022-11-16T16:21:42.518Z,6.13
2022-11-16T16:24:13.014Z,4.27
2022-11-16T16:26:41.351Z,6.60
2022-11-16T16:29:09.444Z,12.03
2022-11-16T16:31:39.032Z,4.10
2022-11-16T16:34:12.696Z,4.60
2022-11-16T16:36:41.351Z,4.17
2022-11-16T16:39:09.699Z,4.20
2022-11-16T16:41:38.091Z,5.73
2022-11-16T16:44:06.700Z,4.67
2022-11-16T16:46:34.877Z,4.47
2022-11-16T16:49:04.332Z,8.07
2022-11-16T16:51:32.677Z,4.50
2022-11-16T16:54:01.073Z,5.67
2022-11-16T16:56:29.424Z,4.63
2022-11-16T16:58:57.825Z,4.10
2022-11-16T17:01:26.779Z,5.07
2022-11-16T17:03:55.142Z,6.13
2022-11-16T17:06:24.685Z,4.90
2022-11-16T17:08:52.713Z,5.13
2022-11-16T17:11:21.073Z,4.57
2022-11-16T17:13:49.404Z,4.73
2022-11-16T17:16:17.882Z,3.97
2022-11-16T17:18:46.328Z,4.20
2022-11-16T17:21:14.660Z,4.27
2022-11-16T17:23:44.131Z,3.90
2022-11-16T17:26:12.411Z,4.50
2022-11-16T17:28:40.824Z,5.87
2022-11-16T17:31:11.339Z,6.53
2022-11-16T17:33:41.634Z,4.50
2022-11-16T17:36:12.980Z,4.53
2022-11-16T17:38:41.777Z,7.83
2022-11-16T17:41:13.666Z,5.37
2022-11-16T17:43:42.909Z,4.47
2022-11-16T17:46:13.131Z,4.70
2022-11-16T17:48:44.325Z,4.03
2022-11-16T17:51:13.438Z,6.67
2022-11-16T17:53:43.628Z,9.53
2022-11-16T17:56:14.806Z,4.87
2022-11-16T17:58:45.049Z,5.30
2022-11-16T18:01:13.493Z,6.07
2022-11-16T18:03:41.975Z,4.43
2022-11-16T18:06:13.393Z,5.10
2022-11-16T18:08:42.591Z,7.90
2022-11-16T18:11:14.423Z,5.27
2022-11-16T18:13:43.362Z,4.47
2022-11-16T18:16:13.865Z,7.23
2022-11-16T18:18:42.888Z,3.90
2022-11-16T18:21:15.872Z,7.27
2022-11-16T18:23:48.393Z,6.83
2022-11-16T18:26:21.029Z,4.73
2022-11-16T18:28:49.546Z,7.37
2022-11-16T18:31:19.002Z,4.53
2022-11-16T18:33:49.061Z,4.37
2022-11-16T18:36:17.685Z,7.50
2022-11-16T18:38:45.868Z,5.53
2022-11-16T18:41:20.764Z,5.13
2022-11-16T18:43:53.842Z,6.63
2022-11-16T18:46:23.758Z,4.93
2022-11-16T18:48:52.222Z,5.27
2022-11-16T18:51:21.644Z,7.37
2022-11-16T18:53:50.158Z,4.63
2022-11-16T18:56:20.287Z,5.03
2022-11-16T18:58:51.436Z,5.33
2022-11-16T19:01:21.957Z,5.37
2022-11-16T19:03:50.446Z,7.70
2022-11-16T19:06:18.874Z,4.83
2022-11-16T19:08:52.106Z,5.90
2022-11-16T19:11:24.172Z,5.57
2022-11-16T19:13:54.660Z,6.57
2022-11-16T19:16:23.730Z,9.20
2022-11-16T19:18:51.824Z,5.83
2022-11-16T19:21:20.256Z,4.87
2022-11-16T19:23:49.796Z,5.03
2022-11-16T19:26:19.414Z,4.60
2022-11-16T19:28:50.629Z,6.73
2022-11-16T19:31:19.951Z,4.87
2022-11-16T19:33:48.474Z,4.53
2022-11-16T19:36:18.491Z,4.23
2022-11-16T19:38:48.388Z,4.47
2022-11-16T19:41:18.157Z,7.70
2022-11-16T19:43:46.501Z,5.67
2022-11-16T19:46:17.575Z,4.17
2022-11-16T19:48:47.198Z,5.47
2022-11-16T19:51:17.809Z,4.23
2022-11-16T19:53:46.171Z,6.73
2022-11-16T19:56:15.965Z,4.00
2022-11-16T19:58:44.735Z,4.13
2022-11-16T20:01:14.991Z,4.90
2022-11-16T20:03:44.617Z,7.53
2022-11-16T20:06:14.924Z,4.07
2022-11-16T20:08:47.579Z,4.20
2022-11-16T20:11:17.397Z,4.63
2022-11-16T20:13:45.618Z,3.90
2022-11-16T20:16:15.236Z,3.50
2022-11-16T20:18:45.804Z,5.73
2022-11-16T20:21:18.029Z,4.20
2022-11-16T20:23:46.486Z,4.20
2022-11-16T20:26:15.288Z,4.83
2022-11-16T20:28:44.637Z,6.17
2022-11-16T20:31:14.244Z,6.10
2022-11-16T20:33:44.630Z,9.93
2022-11-16T20:36:13.005Z,3.97
2022-11-16T20:38:41.486Z,4.23
2022-11-16T20:41:12.120Z,4.63
2022-11-16T20:43:40.827Z,8.80
2022-11-16T20:46:09.219Z,3.90
2022-11-16T20:48:37.709Z,7.80
2022-11-16T20:51:07.967Z,4.70
2022-11-16T20:53:36.893Z,6.30
2022-11-16T20:56:07.641Z,8.53
2022-11-16T20:58:36.381Z,6.13
2022-11-16T21:01:06.421Z,6.20
2022-11-16T21:03:35.422Z,3.23
2022-11-16T21:06:04.129Z,6.30
2022-11-16T21:08:33.520Z,7.63
2022-11-16T21:11:01.875Z,8.13
2022-11-16T21:13:47.406Z,3.57
2022-11-16T21:16:16.437Z,3.50
2022-11-16T21:18:44.728Z,3.37
2022-11-16T21:21:14.091Z,4.83
2022-11-16T21:23:47.219Z,3.47
2022-11-16T21:26:16.506Z,3.97
2022-11-16T21:28:45.408Z,5.43
2022-11-16T21:31:15.189Z,5.63
2022-11-16T21:33:44.197Z,4.07
2022-11-16T21:36:14.255Z,4.63
2022-11-16T21:38:43.960Z,4.20
2022-11-16T21:41:12.992Z,5.20
2022-11-16T21:43:41.462Z,8.07
2022-11-16T21:46:15.621Z,3.27
2022-11-16T21:48:44.018Z,3.93
2022-11-16T21:51:14.698Z,3.90
2022-11-16T21:53:44.451Z,6.93
2022-11-16T21:56:14.213Z,7.17
2022-11-16T21:58:42.944Z,3.60
2022-11-16T22:01:12.589Z,4.40
2022-11-16T22:03:41.065Z,4.20
2022-11-16T22:06:33.421Z,3.77
2022-11-16T22:09:03.016Z,4.00
2022-11-16T22:11:31.360Z,5.23
2022-11-16T22:13:59.728Z,6.03
2022-11-16T22:16:27.820Z,5.00
2022-11-16T22:18:55.843Z,3.90
2022-11-16T22:21:24.168Z,4.60
2022-11-16T22:23:52.575Z,4.40
2022-11-16T22:26:22.073Z,6.60
2022-11-16T22:28:50.458Z,4.57
2022-11-16T22:31:19.806Z,5.03
2022-11-16T22:33:48.188Z,4.70
2022-11-16T22:36:16.546Z,7.57
2022-11-16T22:38:44.829Z,4.80
2022-11-16T22:41:13.237Z,6.23
2022-11-16T22:43:42.672Z,6.07
2022-11-16T22:46:11.226Z,5.30
2022-11-16T22:48:41.088Z,6.07
2022-11-16T22:51:16.364Z,5.20
2022-11-16T22:53:44.682Z,6.20
2022-11-16T22:56:13.306Z,5.20
2022-11-16T22:58:42.711Z,7.10
2022-11-16T23:01:11.196Z,6.60
2022-11-16T23:03:40.244Z,10.87
2022-11-16T23:06:08.961Z,6.80
2022-11-16T23:08:37.804Z,6.50
2022-11-16T23:11:25.338Z,8.17
2022-11-16T23:14:13.031Z,4.03
2022-11-16T23:16:41.981Z,4.53
2022-11-16T23:19:25.656Z,4.40
2022-11-16T23:22:12.152Z,5.60
2022-11-16T23:24:57.684Z,4.83
2022-11-16T23:27:32.491Z,4.50
2022-11-16T23:30:10.770Z,10.50
2022-11-16T23:32:40.733Z,4.40
2022-11-16T23:35:09.487Z,5.10
2022-11-16T23:37:51.277Z,6.43
2022-11-16T23:40:19.802Z,4.90
2022-11-16T23:43:05.672Z,4.83
2022-11-16T23:45:35.226Z,5.00
2022-11-16T23:48:03.570Z,6.50
2022-11-16T23:50:31.912Z,4.70
2022-11-16T23:52:59.989Z,5.47
2022-11-16T23:55:28.333Z,5.37
2022-11-16T23:57:56.405Z,4.70
